createdAt,value
2019-05-02T00:00:00.162Z,11.36
2019-05-02T00:02:33.052Z,11.24
2019-05-02T00:05:04.908Z,11.23
2019-05-02T00:07:35.985Z,11.21
2019-05-02T00:10:12.122Z,11.21
2019-05-02T00:12:44.912Z,11.21
2019-05-02T00:15:18.664Z,11.16
2019-05-02T00:17:49.794Z,11.08
2019-05-02T00:20:21.254Z,11.14
2019-05-02T00:22:53.472Z,11.14
2019-05-02T00:25:24.166Z,11.15
2019-05-02T00:27:54.869Z,11.19
2019-05-02T00:30:29.745Z,11.22
2019-05-02T00:32:59.494Z,11.22
2019-05-02T00:35:30.529Z,11.22
2019-05-02T00:38:02.433Z,11.29
2019-05-02T00:40:33.522Z,11.28
2019-05-02T00:43:04.393Z,11.29
2019-05-02T00:45:35.124Z,11.32
2019-05-02T00:48:10.120Z,11.31
2019-05-02T00:50:45.296Z,11.33
2019-05-02T00:53:14.725Z,11.34
2019-05-02T00:55:45.669Z,11.34
2019-05-02T00:58:16.682Z,11.36
2019-05-02T01:00:58.684Z,11.41
2019-05-02T01:03:32.039Z,11.28
2019-05-02T01:06:03.208Z,11.24
2019-05-02T01:08:35.619Z,11.23
2019-05-02T01:11:06.444Z,11.16
2019-05-02T01:13:37.115Z,11.14
2019-05-02T01:16:07.801Z,11.06
2019-05-02T01:18:41.288Z,11.08
2019-05-02T01:21:10.999Z,11.04
2019-05-02T01:23:41.695Z,11.07
2019-05-02T01:26:13.679Z,11.03
2019-05-02T01:29:02.245Z,11.09
2019-05-02T01:31:54.733Z,11.06
2019-05-02T01:34:25.215Z,11.09
2019-05-02T01:37:00.784Z,11.06
2019-05-02T01:39:32.086Z,11.00
2019-05-02T01:42:04.137Z,10.99
2019-05-02T01:44:36.491Z,10.91
2019-05-02T01:47:07.868Z,10.90
2019-05-02T01:49:38.983Z,10.92
2019-05-02T01:52:09.944Z,10.87
2019-05-02T01:54:45.398Z,10.88
2019-05-02T01:57:13.185Z,10.78
2019-05-02T01:59:44.251Z,10.75
2019-05-02T02:02:15.077Z,10.79
2019-05-02T02:04:45.766Z,10.64
2019-05-02T02:07:20.136Z,10.59
2019-05-02T02:23:14.123Z,10.62
2019-05-02T02:28:47.709Z,10.61
2019-05-02T02:31:21.792Z,10.61
2019-05-02T02:33:52.619Z,10.61
2019-05-02T02:36:31.509Z,10.58
2019-05-02T02:38:55.796Z,10.59
2019-05-02T02:41:26.877Z,10.62
2019-05-02T02:44:02.954Z,10.63
2019-05-02T02:46:37.693Z,10.64
2019-05-02T02:49:13.855Z,10.59
2019-05-02T02:51:40.811Z,10.62
2019-05-02T02:54:11.462Z,10.62
2019-05-02T02:56:42.992Z,10.57
2019-05-02T02:59:19.523Z,10.71
2019-05-02T03:01:46.075Z,10.73
2019-05-02T03:04:17.291Z,10.93
2019-05-02T03:06:48.055Z,11.00
2019-05-02T03:09:20.027Z,10.87
2019-05-02T03:12:09.033Z,11.03
2019-05-02T03:14:47.240Z,11.04
2019-05-02T03:17:20.579Z,10.90
2019-05-02T03:19:47.897Z,10.87
2019-05-02T03:22:19.203Z,11.04
2019-05-02T03:24:49.859Z,11.12
2019-05-02T03:27:20.557Z,11.04
2019-05-02T03:29:51.245Z,11.20
2019-05-02T03:32:33.761Z,11.27
2019-05-02T03:34:54.574Z,11.18
2019-05-02T03:37:25.558Z,11.30
2019-05-02T03:39:57.731Z,11.35
2019-05-02T03:42:30.005Z,11.41
2019-05-02T03:45:04.811Z,11.41
2019-05-02T03:47:36.758Z,11.57
2019-05-02T03:50:09.196Z,11.59
2019-05-02T03:52:43.352Z,11.60
2019-05-02T03:55:12.631Z,11.65
2019-05-02T03:57:44.512Z,11.62
2019-05-02T04:00:21.376Z,11.58
2019-05-02T04:02:59.275Z,11.69
2019-05-02T04:05:21.379Z,11.53
2019-05-02T04:07:52.315Z,11.68
2019-05-02T04:10:52.750Z,11.75
2019-05-02T04:13:22.800Z,11.74
2019-05-02T04:15:53.884Z,11.71
2019-05-02T04:18:25.638Z,11.63
2019-05-02T04:20:56.841Z,11.75
2019-05-02T04:23:29.907Z,11.75
2019-05-02T04:26:06.915Z,11.71
2019-05-02T04:28:35.487Z,11.65
2019-05-02T04:31:06.181Z,11.74
2019-05-02T04:33:36.861Z,11.77
2019-05-02T04:36:15.274Z,11.95
2019-05-02T04:38:47.615Z,11.82
2019-05-02T04:41:18.861Z,11.96
2019-05-02T04:43:57.461Z,11.99
2019-05-02T04:46:26.928Z,12.02
2019-05-02T04:48:54.686Z,12.05
2019-05-02T04:51:28.654Z,12.00
2019-05-02T04:53:58.894Z,11.88
2019-05-02T04:56:29.799Z,11.98
2019-05-02T04:59:01.940Z,11.99
2019-05-02T05:01:43.360Z,11.96
2019-05-02T05:04:10.911Z,12.02
2019-05-02T05:06:54.944Z,11.99
2019-05-02T05:09:15.087Z,11.89
2019-05-02T05:11:48.096Z,11.94
2019-05-02T05:14:19.941Z,11.81
2019-05-02T05:16:55.498Z,12.01
2019-05-02T05:19:30.868Z,12.03
2019-05-02T05:22:04.367Z,12.06
2019-05-02T05:24:32.735Z,12.02
2019-05-02T05:27:03.726Z,12.20
2019-05-02T05:29:34.474Z,12.12
2019-05-02T05:32:09.747Z,12.17
2019-05-02T05:34:38.114Z,12.32
2019-05-02T05:37:13.210Z,12.25
2019-05-02T05:39:43.106Z,12.27
2019-05-02T05:42:17.886Z,12.47
2019-05-02T05:44:48.479Z,12.35
2019-05-02T05:47:21.250Z,12.45
2019-05-02T05:49:57.546Z,12.52
2019-05-02T05:52:27.047Z,12.35
2019-05-02T05:54:57.919Z,12.40
2019-05-02T05:57:29.039Z,12.38
2019-05-02T06:00:03.754Z,12.53
2019-05-02T06:02:52.341Z,12.51
2019-05-02T06:05:09.354Z,12.45
2019-05-02T06:07:44.000Z,12.61
2019-05-02T06:10:13.345Z,12.98
2019-05-02T06:12:44.402Z,13.14
2019-05-02T06:15:15.515Z,12.74
2019-05-02T06:17:46.613Z,12.93
2019-05-02T06:20:17.997Z,12.84
2019-05-02T06:22:49.138Z,12.43
2019-05-02T06:25:32.788Z,12.34
2019-05-02T06:27:54.530Z,12.80
2019-05-02T06:30:27.120Z,12.86
2019-05-02T06:32:57.984Z,12.82
2019-05-02T06:35:29.757Z,12.98
2019-05-02T06:38:00.834Z,13.33
2019-05-02T06:40:31.553Z,13.58
2019-05-02T06:43:04.286Z,13.54
2019-05-02T06:45:37.552Z,13.80
2019-05-02T06:48:07.450Z,13.79
2019-05-02T06:50:40.401Z,13.82
2019-05-02T06:53:11.226Z,13.57
2019-05-02T06:55:42.418Z,13.94
2019-05-02T06:58:13.181Z,14.20
2019-05-02T07:00:56.702Z,14.35
2019-05-02T07:03:17.081Z,13.62
2019-05-02T07:05:49.186Z,14.03
2019-05-02T07:08:21.964Z,14.12
2019-05-02T07:10:55.850Z,14.22
2019-05-02T07:13:26.152Z,14.26
2019-05-02T07:16:10.619Z,13.96
2019-05-02T07:18:53.852Z,13.61
2019-05-02T07:21:24.812Z,13.48
2019-05-02T07:23:56.846Z,13.49
2019-05-02T07:26:27.885Z,13.50
2019-05-02T07:28:58.708Z,13.66
2019-05-02T07:31:29.829Z,13.72
2019-05-02T07:34:00.524Z,13.48
2019-05-02T07:36:36.404Z,13.90
2019-05-02T07:39:06.395Z,14.14
2019-05-02T07:41:37.485Z,14.23
2019-05-02T07:44:09.368Z,14.25
2019-05-02T07:46:51.167Z,14.16
2019-05-02T07:49:12.453Z,14.21
2019-05-02T07:51:43.515Z,14.40
2019-05-02T07:54:14.422Z,14.65
2019-05-02T07:56:48.659Z,14.48
2019-05-02T07:59:23.427Z,14.52
2019-05-02T08:01:51.822Z,14.59
2019-05-02T08:04:22.896Z,14.71
2019-05-02T08:06:53.582Z,14.56
2019-05-02T08:09:24.941Z,15.21
2019-05-02T08:12:24.038Z,15.62
2019-05-02T08:15:13.191Z,15.79
2019-05-02T08:17:53.248Z,15.63
2019-05-02T08:20:19.165Z,15.61
2019-05-02T08:22:50.638Z,15.25
2019-05-02T08:25:21.840Z,15.07
2019-05-02T08:27:57.118Z,14.92
2019-05-02T08:30:30.034Z,15.17
2019-05-02T08:33:00.801Z,15.48
2019-05-02T08:35:32.619Z,15.24
2019-05-02T08:38:03.599Z,14.74
2019-05-02T08:40:34.347Z,14.88
2019-05-02T08:43:09.441Z,15.09
2019-05-02T08:45:39.487Z,15.17
2019-05-02T08:48:10.333Z,15.33
2019-05-02T08:50:41.271Z,16.08
2019-05-02T08:53:14.235Z,16.14
2019-05-02T08:55:45.332Z,15.99
2019-05-02T08:58:17.438Z,16.21
2019-05-02T09:00:48.118Z,16.31
2019-05-02T09:03:18.810Z,16.49
2019-05-02T09:05:49.858Z,16.25
2019-05-02T09:08:20.805Z,16.16
2019-05-02T09:10:51.500Z,16.21
2019-05-02T09:13:27.163Z,16.68
2019-05-02T09:15:55.565Z,16.91
2019-05-02T09:18:35.264Z,17.47
2019-05-02T09:20:58.683Z,17.72
2019-05-02T09:23:35.001Z,17.94
2019-05-02T09:26:02.554Z,17.61
2019-05-02T09:28:33.748Z,17.83
2019-05-02T09:31:06.715Z,17.86
2019-05-02T09:33:42.429Z,18.13
2019-05-02T09:36:09.429Z,18.58
2019-05-02T09:38:42.499Z,18.76
2019-05-02T09:41:19.040Z,18.48
2019-05-02T09:43:46.035Z,18.90
2019-05-02T09:46:17.179Z,19.14
2019-05-02T09:48:48.218Z,18.89
2019-05-02T09:51:21.609Z,19.66
2019-05-02T09:53:57.046Z,20.27
2019-05-02T09:56:25.401Z,20.89
2019-05-02T09:59:04.742Z,19.51
2019-05-02T10:01:31.702Z,19.44
2019-05-02T10:04:02.536Z,19.88
2019-05-02T10:06:34.090Z,20.56
2019-05-02T10:09:07.853Z,20.30
2019-05-02T10:11:41.814Z,20.77
2019-05-02T10:14:13.838Z,20.56
2019-05-02T10:16:44.771Z,20.78
2019-05-02T10:19:15.805Z,20.50
2019-05-02T10:21:51.392Z,20.30
2019-05-02T10:24:19.657Z,19.97
2019-05-02T10:26:55.187Z,20.82
2019-05-02T10:29:28.069Z,20.69
2019-05-02T10:31:55.376Z,21.04
2019-05-02T10:34:26.072Z,20.70
2019-05-02T10:36:59.091Z,20.79
2019-05-02T10:39:36.160Z,21.46
2019-05-02T10:42:02.156Z,21.19
2019-05-02T10:44:36.476Z,21.43
2019-05-02T10:47:05.705Z,20.91
2019-05-02T10:49:38.335Z,21.48
2019-05-02T10:52:09.401Z,21.44
2019-05-02T10:54:42.098Z,21.85
2019-05-02T10:57:13.320Z,21.57
2019-05-02T10:59:44.053Z,21.58
2019-05-02T11:02:16.834Z,21.28
2019-05-02T11:04:49.607Z,21.81
2019-05-02T11:07:22.685Z,20.74
2019-05-02T11:09:52.807Z,21.57
2019-05-02T11:12:40.284Z,21.52
2019-05-02T11:15:16.752Z,21.52
2019-05-02T11:17:48.869Z,21.05
2019-05-02T11:20:19.724Z,21.10
2019-05-02T11:22:52.691Z,21.02
2019-05-02T11:25:23.119Z,21.07
2019-05-02T11:27:57.347Z,21.65
2019-05-02T11:30:26.820Z,21.70
2019-05-02T11:32:57.960Z,21.60
2019-05-02T11:35:29.027Z,21.18
2019-05-02T11:38:02.332Z,21.49
2019-05-02T11:40:32.947Z,20.89
2019-05-02T11:43:06.762Z,20.74
2019-05-02T11:45:36.367Z,20.59
2019-05-02T11:48:09.364Z,20.12
2019-05-02T11:50:40.043Z,20.20
2019-05-02T11:53:24.855Z,20.62
2019-05-02T11:55:43.907Z,21.33
2019-05-02T11:58:15.323Z,21.04
2019-05-02T12:00:49.535Z,20.55
2019-05-02T12:03:21.960Z,20.58
2019-05-02T12:05:52.774Z,20.78
2019-05-02T12:08:23.447Z,20.60
2019-05-02T12:10:54.426Z,19.93
2019-05-02T12:13:25.461Z,19.74
2019-05-02T12:15:56.198Z,19.86
2019-05-02T12:18:27.340Z,19.39
2019-05-02T12:21:19.131Z,19.58
2019-05-02T12:23:51.995Z,19.63
2019-05-02T12:26:22.770Z,19.72
2019-05-02T12:28:53.835Z,19.42
2019-05-02T12:31:32.498Z,19.64
2019-05-02T12:34:05.102Z,19.43
2019-05-02T12:36:36.207Z,19.46
2019-05-02T12:39:08.018Z,19.36
2019-05-02T12:41:39.142Z,18.88
2019-05-02T12:44:11.755Z,18.72
2019-05-02T12:46:42.893Z,18.83
2019-05-02T12:49:24.807Z,19.10
2019-05-02T12:51:46.283Z,19.02
2019-05-02T12:54:16.978Z,19.09
2019-05-02T12:56:47.975Z,19.01
2019-05-02T12:59:18.987Z,18.84
2019-05-02T13:01:51.696Z,18.53
2019-05-02T13:04:23.029Z,18.84
2019-05-02T13:06:53.811Z,18.83
2019-05-02T13:09:24.745Z,18.74
2019-05-02T13:11:55.381Z,18.94
2019-05-02T13:14:28.238Z,19.01
2019-05-02T13:17:03.866Z,18.61
2019-05-02T13:19:40.066Z,18.76
2019-05-02T13:22:09.520Z,18.89
2019-05-02T13:24:42.388Z,18.86
2019-05-02T13:27:16.269Z,19.19
2019-05-02T13:29:48.520Z,19.20
2019-05-02T13:32:23.863Z,19.25
2019-05-02T13:35:15.151Z,19.15
2019-05-02T13:37:47.507Z,19.04
2019-05-02T13:40:22.455Z,18.97
2019-05-02T13:42:52.772Z,19.11
2019-05-02T13:45:37.122Z,19.11
2019-05-02T13:48:08.566Z,19.10
2019-05-02T13:50:39.615Z,19.11
2019-05-02T13:53:12.183Z,19.19
2019-05-02T13:55:47.620Z,19.44
2019-05-02T13:58:21.646Z,19.69
2019-05-02T14:00:52.902Z,19.60
2019-05-02T14:03:24.246Z,19.45
2019-05-02T14:05:55.296Z,19.45
2019-05-02T14:08:35.479Z,19.31
2019-05-02T14:11:02.031Z,19.29
2019-05-02T14:13:32.856Z,19.40
2019-05-02T14:16:03.836Z,19.29
2019-05-02T14:18:34.794Z,19.05
2019-05-02T14:21:05.931Z,18.95
2019-05-02T14:23:36.601Z,19.04
2019-05-02T14:26:07.607Z,19.11
2019-05-02T14:28:38.862Z,19.13
2019-05-02T14:31:11.796Z,19.17
2019-05-02T14:33:43.975Z,19.44
2019-05-02T14:36:14.754Z,19.34
2019-05-02T14:38:46.057Z,19.12
2019-05-02T14:41:18.722Z,19.24
2019-05-02T14:43:53.278Z,19.16
2019-05-02T14:46:29.027Z,19.01
2019-05-02T14:48:58.224Z,18.90
2019-05-02T14:51:29.265Z,18.95
2019-05-02T14:54:08.152Z,18.98
2019-05-02T14:56:46.214Z,18.64
2019-05-02T14:59:17.912Z,18.60
2019-05-02T15:01:47.001Z,18.59
2019-05-02T15:04:18.048Z,18.49
2019-05-02T15:06:49.261Z,18.46
2019-05-02T15:09:26.624Z,18.40
2019-05-02T15:12:03.069Z,18.47
2019-05-02T15:14:35.269Z,18.42
2019-05-02T15:17:07.947Z,18.43
2019-05-02T15:19:38.651Z,18.59
2019-05-02T15:22:09.736Z,18.70
2019-05-02T15:24:42.241Z,18.68
2019-05-02T15:27:17.532Z,18.79
2019-05-02T15:29:45.389Z,18.74
2019-05-02T15:32:16.203Z,18.61
2019-05-02T15:35:05.207Z,18.38
2019-05-02T15:37:36.327Z,18.41
2019-05-02T15:42:43.921Z,18.62
2019-05-02T15:45:14.993Z,18.48
2019-05-02T15:47:46.086Z,18.48
2019-05-02T15:50:23.845Z,18.55
2019-05-02T15:53:39.136Z,18.37
2019-05-02T15:56:19.877Z,18.27
2019-05-02T15:58:44.705Z,18.14
2019-05-02T16:01:36.749Z,17.69
2019-05-02T16:04:09.166Z,17.69
2019-05-02T16:06:41.900Z,17.85
2019-05-02T16:09:12.734Z,17.60
2019-05-02T16:11:47.946Z,17.59
2019-05-02T16:14:16.283Z,17.37
2019-05-02T16:16:47.331Z,17.33
2019-05-02T16:19:27.042Z,17.37
2019-05-02T16:22:08.157Z,17.40
2019-05-02T16:24:39.239Z,17.46
2019-05-02T16:27:11.676Z,17.22
2019-05-02T16:29:42.776Z,17.32
2019-05-02T16:32:16.162Z,17.29
2019-05-02T16:34:54.375Z,17.17
2019-05-02T16:37:25.651Z,17.19
2019-05-02T16:39:57.186Z,17.11
2019-05-02T16:42:29.291Z,17.24
2019-05-02T16:45:02.454Z,17.39
2019-05-02T16:47:33.221Z,17.44
2019-05-02T16:50:05.861Z,17.53
2019-05-02T16:52:38.247Z,17.56
2019-05-02T16:55:15.101Z,17.58
2019-05-02T16:57:43.311Z,17.33
2019-05-02T17:00:24.327Z,17.36
2019-05-02T17:02:55.238Z,17.20
2019-05-02T17:05:26.285Z,17.28
2019-05-02T17:08:18.821Z,17.01
2019-05-02T17:10:54.563Z,17.03
2019-05-02T17:13:27.446Z,16.94
2019-05-02T17:15:56.505Z,16.97
2019-05-02T17:18:27.801Z,16.93
2019-05-02T17:20:58.889Z,16.83
2019-05-02T17:23:30.077Z,16.84
2019-05-02T17:26:17.581Z,16.82
2019-05-02T17:29:16.412Z,16.64
2019-05-02T17:31:50.140Z,16.71
2019-05-02T17:34:29.965Z,16.57
2019-05-02T17:36:59.152Z,16.49
2019-05-02T17:39:29.206Z,16.47
2019-05-02T17:42:00.932Z,16.46
2019-05-02T17:44:32.995Z,16.46
2019-05-02T17:47:03.748Z,16.43
2019-05-02T17:49:36.697Z,16.33
2019-05-02T17:52:19.781Z,16.25
2019-05-02T17:54:52.716Z,16.08
2019-05-02T17:57:22.997Z,16.07
2019-05-02T17:59:54.030Z,16.07
2019-05-02T18:02:24.829Z,15.94
2019-05-02T18:04:56.257Z,15.83
2019-05-02T18:07:32.120Z,15.83
2019-05-02T18:10:05.961Z,15.69
2019-05-02T18:12:34.561Z,15.58
2019-05-02T18:15:08.843Z,15.58
2019-05-02T18:17:39.665Z,15.56
2019-05-02T18:20:12.412Z,15.51
2019-05-02T18:22:45.334Z,15.50
2019-05-02T18:25:21.633Z,15.51
2019-05-02T18:27:49.215Z,15.31
2019-05-02T18:30:22.867Z,15.40
2019-05-02T18:32:57.718Z,15.46
2019-05-02T18:35:27.424Z,15.32
2019-05-02T18:37:58.483Z,15.27
2019-05-02T18:40:32.006Z,15.29
2019-05-02T18:43:05.273Z,15.32
2019-05-02T18:45:35.055Z,15.09
2019-05-02T18:48:06.960Z,15.22
2019-05-02T18:50:46.653Z,15.14
2019-05-02T18:53:18.646Z,15.10
2019-05-02T18:55:47.532Z,15.10
2019-05-02T18:58:18.587Z,15.06
2019-05-02T19:00:51.815Z,15.01
2019-05-02T19:03:23.154Z,15.03
2019-05-02T19:05:57.341Z,14.98
2019-05-02T19:08:30.837Z,14.95
2019-05-02T19:11:08.454Z,14.85
2019-05-02T19:13:37.513Z,14.82
2019-05-02T19:16:07.705Z,14.77
2019-05-02T19:18:38.626Z,14.68
2019-05-02T19:21:12.524Z,14.60
2019-05-02T19:23:43.294Z,14.76
2019-05-02T19:26:15.384Z,14.65
2019-05-02T19:28:52.288Z,14.71
2019-05-02T19:31:24.632Z,14.64
2019-05-02T19:33:55.696Z,14.47
2019-05-02T19:36:27.862Z,14.46
2019-05-02T19:39:06.278Z,14.48
2019-05-02T19:41:39.091Z,14.47
2019-05-02T19:44:07.099Z,14.37
2019-05-02T19:46:39.026Z,14.45
2019-05-02T19:49:12.492Z,14.36
2019-05-02T19:51:43.892Z,14.40
2019-05-02T19:54:15.158Z,14.33
2019-05-02T19:56:47.435Z,14.25
2019-05-02T19:59:24.513Z,14.21
2019-05-02T20:01:52.335Z,14.09
2019-05-02T20:04:23.989Z,14.08
2019-05-02T20:06:54.840Z,14.07
2019-05-02T20:09:25.952Z,14.02
2019-05-02T20:11:57.437Z,13.82
2019-05-02T20:14:28.474Z,13.82
2019-05-02T20:17:02.214Z,13.75
2019-05-02T20:19:35.053Z,13.68
2019-05-02T20:22:11.799Z,13.63
2019-05-02T20:24:55.376Z,13.56
2019-05-02T20:27:28.286Z,13.43
2019-05-02T20:29:58.674Z,13.34
2019-05-02T20:32:29.340Z,13.23
2019-05-02T20:35:00.248Z,13.21
2019-05-02T20:37:32.473Z,13.21
2019-05-02T20:40:03.712Z,13.25
2019-05-02T20:42:34.415Z,13.04
2019-05-02T20:45:07.813Z,13.13
2019-05-02T20:47:38.905Z,13.06
2019-05-02T20:50:11.965Z,13.03
2019-05-02T20:52:42.259Z,13.03
2019-05-02T20:55:13.350Z,12.99
2019-05-02T20:57:44.067Z,12.88
2019-05-02T21:00:28.021Z,12.96
2019-05-02T21:02:59.130Z,12.85
2019-05-02T21:05:42.672Z,12.74
2019-05-02T21:08:32.484Z,12.82
2019-05-02T21:11:06.680Z,12.75
2019-05-02T21:13:37.630Z,12.64
2019-05-02T21:16:08.688Z,12.64
2019-05-02T21:18:39.378Z,12.55
2019-05-02T21:21:12.421Z,12.52
2019-05-02T21:23:47.494Z,12.44
2019-05-02T21:26:16.628Z,12.34
2019-05-02T21:28:47.376Z,12.33
2019-05-02T21:31:18.210Z,12.14
2019-05-02T21:33:49.443Z,12.33
2019-05-02T21:36:22.560Z,12.23
2019-05-02T21:38:53.081Z,12.18
2019-05-02T21:41:24.411Z,12.15
2019-05-02T21:43:55.375Z,12.02
2019-05-02T21:46:27.186Z,11.99
2019-05-02T21:48:58.393Z,12.03
2019-05-02T21:51:31.983Z,11.86
2019-05-02T21:54:13.755Z,11.96
2019-05-02T21:56:49.389Z,11.97
2019-05-02T21:59:22.353Z,11.92
2019-05-02T22:01:54.786Z,11.78
2019-05-02T22:04:25.560Z,11.73
2019-05-02T22:06:56.593Z,11.71
2019-05-02T22:09:27.600Z,11.55
2019-05-02T22:11:58.440Z,11.50
2019-05-02T22:14:30.239Z,11.45
2019-05-02T22:17:02.289Z,11.35
2019-05-02T22:19:33.644Z,11.30
2019-05-02T22:22:04.327Z,11.32
2019-05-02T22:24:35.016Z,11.25
2019-05-02T22:27:06.164Z,11.23
2019-05-02T22:29:37.339Z,11.24
2019-05-02T22:32:08.359Z,11.27
2019-05-02T22:34:39.525Z,11.24
2019-05-02T22:37:12.518Z,11.15
2019-05-02T22:39:56.940Z,11.14
2019-05-02T22:42:27.977Z,11.27
2019-05-02T22:44:58.939Z,11.22
2019-05-02T22:47:29.692Z,11.42
2019-05-02T22:50:00.787Z,11.48
2019-05-02T22:52:32.244Z,11.54
2019-05-02T22:55:03.393Z,11.52
2019-05-02T22:57:34.170Z,11.48
2019-05-02T23:00:08.542Z,11.54
2019-05-02T23:02:41.900Z,11.52
2019-05-02T23:05:13.150Z,11.46
2019-05-02T23:07:43.793Z,11.53
2019-05-02T23:10:14.674Z,11.41
2019-05-02T23:12:45.788Z,11.42
2019-05-02T23:15:16.863Z,11.50
2019-05-02T23:17:47.978Z,11.58
2019-05-02T23:20:19.046Z,11.45
2019-05-02T23:22:50.082Z,11.47
2019-05-02T23:25:39.160Z,11.52
2019-05-02T23:28:11.888Z,11.48
2019-05-02T23:30:42.922Z,11.53
2019-05-02T23:33:13.623Z,11.50
2019-05-02T23:35:44.355Z,11.39
2019-05-02T23:38:16.264Z,11.39
2019-05-02T23:40:47.239Z,11.41
2019-05-02T23:43:18.008Z,11.40
2019-05-02T23:45:49.003Z,11.44
2019-05-02T23:48:22.004Z,11.51
2019-05-02T23:50:52.724Z,11.49
2019-05-02T23:53:23.407Z,11.33
2019-05-02T23:55:55.037Z,11.44
2019-05-02T23:58:26.030Z,11.63
